Historyczne dane pomiarowe

Dodano dane terminowe – wersja testowa.

Dane z okresu 1951-2019

Wersja bazy: 1.34 [2019-03-16, lista zmian], aktualizacja planowana na 2019-04-15

Dane meteo z obszaru Polski uzyskane na podstawie danych udostępnionych przez Instytut Meteorologii i Gospodarki Wodnej – Państwowy Instytut Badawczy.

 

Wybierz Datę:    

       

TemperaturaWilgotnośćZachmurzenieWiatrCiśnienieWidzialnośćZjawiska
 Data    tng td wb rh cc ccl cl cm ch dir g1 g2 mslp ppp      
1999-07-13 00:00:00 16.8--- 15.8 16.294wxwx0wx--1012.3 988.1 0.0---wx
1999-07-13 01:00:00 16.7--- 16.5 16.699wxwx0wx--1012.0 987.8----wx
1999-07-13 02:00:00 16.5--- 16.3 16.499wxwx0wx--1011.7 987.5----wxw1
1999-07-13 03:00:00 15.2--- 15.2 15.2100wxwxwxwx0wx--1011.9 987.5----wx
1999-07-13 04:00:00 16.0--- 15.8 15.999wxwxwxwx1wx--1011.8 987.5----wx
1999-07-13 05:00:00 17.4--- 16.6 16.995wxwxwx0wx--1011.3 987.1----wx
1999-07-13 06:00:00 18.2--- 17.1 17.593wxwxwx0wx--1011.1 987.0 0.0---wxw1
1999-07-13 07:00:00 19.5--- 18.0 18.591wxwxwx1wx--1010.5 986.5----wx
1999-07-13 08:00:00 21.5--- 19.3 20.087wxwxwxwx2wx--1010.0 986.2----wx
1999-07-13 09:00:00 22.6--- 18.7 20.079wxwxwxwxwx2wx--1009.7 986.0----wx
1999-07-13 10:00:00 24.0--- 17.0 19.465wxwxwxwxwx4wx--1009.1 985.5----wx
1999-07-13 11:00:00 24.4--- 16.7 19.462wxwxwxwx3wx--1008.1 984.6----wx
1999-07-13 12:00:00 26.6--- 16.9 20.255wxwxwxwx3wx--1007.5 984.2 0.0---wx
1999-07-13 13:00:00 22.6--- 17.7 19.474wxwxwxwx5wx--1007.8 984.1----wxw1
1999-07-13 14:00:00 24.0--- 17.0 19.465wxwxwxwxwx6wx--1006.7 983.2----wx
1999-07-13 15:00:00 24.2--- 19.5 21.075wxwxwxwx3wx--1006.1 982.6----wxw1
1999-07-13 16:00:00 25.2--- 20.9 22.277wxwxwxwxwx3wx--1005.8 982.4----wxw1
1999-07-13 17:00:00 23.5--- 19.5 20.878wxwxwxwx3wx--1005.9 982.4----wx
1999-07-13 18:00:00 21.2--- 17.0 18.577wxwxwx6wx--1006.5 982.8 3.4---wxw1
1999-07-13 19:00:00 19.4--- 17.1 17.986wxwxwxwx3wx--1006.4 982.5----wx
1999-07-13 20:00:00 18.6--- 16.7 17.489wxwxwxwx4wx--1006.2 982.3----wxw1
1999-07-13 21:00:00 17.8--- 16.7 17.193wxwxwxwx4wx--1006.0 982.0----wx
1999-07-13 22:00:00 17.5--- 16.6 16.994wxwxwxwx2wx--1005.5 981.5----wxw1
1999-07-13 23:00:00 17.8--- 16.9 17.294wxwxwxwx2wx--1005.2 981.2----wx

 

Źródłem pochodzenia danych jest Instytut Meteorologii i Gospodarki Wodnej – Państwowy Instytut Badawczy. Dane Instytutu Meteorologii i Gospodarki Wodnej – Państwowego Instytutu Badawczego zostały przetworzone.

Dane źródłowe można odnaleźć na stronie https://dane.imgw.pl